Time;durP1;ratioP1;P1;durP2;ratioP2;P2;SDS_P1;SDS_P2;PMS_P1;PMS_P2;Temp;Humidity;BMP_temperature;BMP_pressure;BME280_temperature;BME280_humidity;BME280_pressure;Samples;Min_cycle;Max_cycle;Signal;HPM_P1;HPM_P2
2022/09/17 13:14:47;;;;;;;3.35;0.63;;;24.10;97.50;;;;;;6246704;22;20032;-86
2022/09/17 13:17:50;;;;;;;3.28;0.60;;;24.00;96.90;;;;;;6153379;23;20135;-87
2022/09/17 13:20:23;;;;;;;1.97;0.50;;;24.00;96.40;;;;;;6124962;23;20045;-88
2022/09/17 13:22:53;;;;;;;3.85;0.63;;;24.20;96.60;;;;;;6183439;22;20016;-86
2022/09/17 13:25:21;;;;;;;2.47;0.57;;;24.50;96.40;;;;;;6154972;23;20013;-88
2022/09/17 13:27:49;;;;;;;2.47;0.60;;;24.90;96.40;;;;;;6183109;22;20029;-87
2022/09/17 13:30:19;;;;;;;2.78;0.60;;;24.30;95.60;;;;;;6179262;23;20004;-86
2022/09/17 13:32:50;;;;;;;2.67;0.50;;;23.10;96.00;;;;;;6179406;23;20013;-86
2022/09/17 13:35:15;;;;;;;1.98;0.50;;;21.90;96.80;;;;;;6204582;22;20482;-88
2022/09/17 13:37:59;;;;;;;1.88;0.50;;;20.80;97.10;;;;;;6242335;23;20004;-85
2022/09/17 13:40:29;;;;;;;2.03;0.50;;;20.00;97.80;;;;;;6216094;23;20010;-88
2022/09/17 13:43:07;;;;;;;3.03;0.70;;;19.30;97.80;;;;;;6215788;23;20012;-88
2022/09/17 13:45:53;;;;;;;2.08;0.50;;;18.60;98.00;;;;;;6244469;23;20038;-92
2022/09/17 13:48:24;;;;;;;4.25;0.73;;;17.90;98.30;;;;;;6216564;23;20020;-92
2022/09/17 13:50:50;;;;;;;5.07;0.98;;;17.50;98.70;;;;;;6219172;23;20020;-89
2022/09/17 13:53:16;;;;;;;3.42;0.70;;;17.50;98.40;;;;;;6216416;23;20472;-89
2022/09/17 13:55:47;;;;;;;3.97;0.68;;;17.80;98.10;;;;;;6242665;23;20008;-89
2022/09/17 13:58:19;;;;;;;3.13;0.60;;;18.30;98.50;;;;;;6242196;23;20004;-89
2022/09/17 14:01:04;;;;;;;5.00;1.00;;;19.70;98.00;;;;;;6216301;23;20099;-90
2022/09/17 14:03:45;;;;;;;3.55;0.95;;;20.90;97.20;;;;;;6215493;23;20027;-88
2022/09/17 14:06:10;;;;;;;3.42;0.68;;;21.70;96.40;;;;;;6240338;23;20004;-89
2022/09/17 14:08:46;;;;;;;6.40;0.80;;;22.40;96.30;;;;;;6210044;23;20024;-88
2022/09/17 14:11:31;;;;;;;4.47;0.82;;;23.00;95.90;;;;;;6209079;23;20442;-90
2022/09/17 14:14:03;;;;;;;4.35;0.73;;;23.40;95.00;;;;;;6216387;23;20020;-89
2022/09/17 14:16:35;;;;;;;3.08;0.68;;;22.80;94.80;;;;;;6216328;23;20028;-89
2022/09/17 14:19:40;;;;;;;2.95;1.00;;;21.70;94.90;;;;;;6216309;23;20616;-89
2022/09/17 14:22:35;;;;;;;2.25;0.60;;;20.10;96.30;;;;;;6216673;23;20013;-89
2022/09/17 14:25:00;;;;;;;2.75;0.65;;;18.50;97.60;;;;;;6191719;23;20004;-89
2022/09/17 14:27:45;;;;;;;2.67;0.65;;;17.80;98.70;;;;;;6217388;23;20027;-89
2022/09/17 14:30:31;;;;;;;2.85;0.70;;;17.50;99.60;;;;;;6216100;23;20095;-89
2022/09/17 14:33:09;;;;;;;2.63;0.60;;;18.10;99.80;;;;;;6216264;23;20066;-89
2022/09/17 14:35:54;;;;;;;1.80;0.47;;;18.90;99.50;;;;;;6216332;23;20099;-89
2022/09/17 14:38:32;;;;;;;2.28;0.50;;;19.90;99.00;;;;;;6217241;23;20031;-87
2022/09/17 14:41:06;;;;;;;2.28;0.55;;;20.60;98.50;;;;;;6213865;23;20012;-87
2022/09/17 14:43:53;;;;;;;3.05;0.57;;;20.80;97.20;;;;;;6216022;23;20086;-92
2022/09/17 14:46:23;;;;;;;4.57;0.80;;;20.40;97.00;;;;;;6222319;23;20104;-90
2022/09/17 14:48:49;;;;;;;2.35;0.63;;;19.60;96.90;;;;;;6220505;23;20008;-91
2022/09/17 14:51:18;;;;;;;3.22;0.70;;;19.00;97.40;;;;;;6224584;23;20121;-90
2022/09/17 14:53:45;;;;;;;3.60;0.90;;;18.80;97.60;;;;;;6222564;23;20015;-90
2022/09/17 14:56:21;;;;;;;3.47;0.95;;;18.50;97.40;;;;;;6219446;23;20004;-92
2022/09/17 14:58:52;;;;;;;2.72;0.60;;;18.10;97.20;;;;;;6227633;23;20063;-93
2022/09/17 15:01:28;;;;;;;3.53;0.60;;;18.10;97.40;;;;;;6223658;23;20035;-92
2022/09/17 15:04:16;;;;;;;2.95;0.70;;;18.20;96.90;;;;;;6221789;23;20004;-91
2022/09/17 15:06:43;;;;;;;4.70;0.57;;;18.10;96.90;;;;;;6219842;23;20023;-90
2022/09/17 15:09:26;;;;;;;4.03;0.90;;;18.00;97.30;;;;;;6217051;23;20008;-92
2022/09/17 15:11:57;;;;;;;;;;;18.00;97.40;;;;;;6219252;23;20027;-90
2022/09/17 15:14:32;;;;;;;1.13;0.30;;;17.70;97.50;;;;;;6240746;23;20317;-90
2022/09/17 15:17:01;;;;;;;2.20;0.63;;;17.70;97.90;;;;;;6216491;23;20036;-88
2022/09/17 15:19:32;;;;;;;3.22;0.73;;;17.70;98.10;;;;;;6214985;23;20024;-90
2022/09/17 15:22:04;;;;;;;3.53;0.90;;;17.70;97.70;;;;;;6219365;23;20040;-90
2022/09/17 15:24:46;;;;;;;4.43;0.70;;;17.60;97.90;;;;;;6221397;23;20334;-88
2022/09/17 15:27:25;;;;;;;3.22;0.68;;;17.40;97.20;;;;;;6216843;23;20065;-89
2022/09/17 15:29:59;;;;;;;4.63;0.90;;;17.20;97.80;;;;;;6221196;23;20028;-90
2022/09/17 15:32:25;;;;;;;4.22;0.95;;;17.00;97.00;;;;;;6218420;23;20016;-90
2022/09/17 15:35:13;;;;;;;2.58;0.70;;;16.80;97.60;;;;;;6216662;23;20012;-90
2022/09/17 15:37:55;;;;;;;3.67;0.80;;;16.80;97.80;;;;;;6214950;23;20008;-91
2022/09/17 15:40:35;;;;;;;3.63;1.00;;;16.70;98.10;;;;;;6214990;23;20359;-89
2022/09/17 15:43:13;;;;;;;6.97;1.27;;;16.80;98.00;;;;;;6216531;23;20028;-87
2022/09/17 15:45:41;;;;;;;3.42;0.80;;;16.80;98.30;;;;;;6241375;23;20258;-90
2022/09/17 15:48:26;;;;;;;3.13;0.65;;;16.60;98.80;;;;;;6216852;23;20038;-89
2022/09/17 15:50:54;;;;;;;3.35;0.70;;;16.30;99.70;;;;;;6231667;23;20019;-91
2022/09/17 15:53:25;;;;;;;3.50;0.50;;;16.00;99.90;;;;;;6215389;23;20427;-92
2022/09/17 15:56:00;;;;;;;3.38;0.75;;;15.80;99.90;;;;;;6215925;23;20012;-90
2022/09/17 15:58:41;;;;;;;3.03;0.80;;;15.70;99.90;;;;;;6216975;23;20009;-90
2022/09/17 16:01:13;;;;;;;3.35;0.60;;;15.50;99.90;;;;;;6217256;23;20065;-92
2022/09/17 16:03:45;;;;;;;2.90;0.50;;;15.40;99.90;;;;;;6216955;23;20009;-92
2022/09/17 16:06:16;;;;;;;3.67;0.93;;;15.30;99.90;;;;;;6217537;23;20012;-91
2022/09/17 16:08:46;;;;;;;2.30;0.70;;;15.20;99.90;;;;;;6242920;23;20907;-88
2022/09/17 16:11:12;;;;;;;4.32;0.70;;;15.10;99.90;;;;;;6213576;23;20010;-88
2022/09/17 16:13:48;;;;;;;7.75;0.70;;;15.20;99.90;;;;;;6209975;23;20019;-88
2022/09/17 16:16:17;;;;;;;3.17;0.70;;;15.20;99.90;;;;;;6210221;23;20020;-89
2022/09/17 16:18:43;;;;;;;3.05;0.80;;;15.20;99.90;;;;;;6242663;23;20012;-88
2022/09/17 16:21:17;;;;;;;1.92;0.45;;;15.20;99.90;;;;;;6215307;23;20065;-90
2022/09/17 16:23:43;;;;;;;4.97;0.93;;;15.20;99.90;;;;;;6217162;23;20043;-90
2022/09/17 16:26:16;;;;;;;4.95;0.90;;;15.10;99.90;;;;;;6219133;23;20011;-89
2022/09/17 16:28:44;;;;;;;5.20;0.85;;;15.10;99.90;;;;;;6207715;23;20023;-88
2022/09/17 16:31:13;;;;;;;5.78;0.90;;;15.00;99.90;;;;;;6221536;23;20003;-91
2022/09/17 16:33:39;;;;;;;5.03;0.93;;;14.90;99.90;;;;;;6225422;23;20381;-91
2022/09/17 16:36:05;;;;;;;3.30;1.13;;;14.80;99.90;;;;;;6219277;23;20000;-91
2022/09/17 16:38:31;;;;;;;6.68;1.10;;;14.70;99.90;;;;;;6225701;23;20004;-92
2022/09/17 16:40:56;;;;;;;4.32;0.90;;;14.70;99.90;;;;;;6228542;23;20477;-91
2022/09/17 16:43:23;;;;;;;4.78;0.93;;;14.60;99.90;;;;;;6229758;23;20004;-89
2022/09/17 16:46:03;;;;;;;4.03;0.88;;;14.60;99.90;;;;;;6229575;23;20095;-90
2022/09/17 16:48:30;;;;;;;4.57;0.90;;;14.60;99.90;;;;;;6227487;23;20020;-92
2022/09/17 16:50:56;;;;;;;3.88;0.80;;;14.60;99.90;;;;;;6227542;23;20012;-90
2022/09/17 16:53:22;;;;;;;4.57;0.93;;;14.50;99.90;;;;;;6243892;23;20032;-91
2022/09/17 16:55:49;;;;;;;3.63;0.80;;;14.50;99.90;;;;;;6219205;23;20004;-88
2022/09/17 16:58:15;;;;;;;2.65;0.60;;;14.60;99.90;;;;;;6219111;23;20031;-89
2022/09/17 17:00:42;;;;;;;4.93;0.90;;;14.60;99.90;;;;;;6220923;23;20000;-88
2022/09/17 17:03:10;;;;;;;4.10;0.70;;;14.70;99.90;;;;;;6222525;23;20465;-90
2022/09/17 17:05:36;;;;;;;4.68;0.68;;;14.70;99.90;;;;;;6251173;23;20504;-90
2022/09/17 17:08:02;;;;;;;2.72;0.65;;;14.70;99.90;;;;;;6225465;23;20027;-90
2022/09/17 17:10:28;;;;;;;2.63;0.50;;;14.80;99.90;;;;;;6216482;23;20004;-88
2022/09/17 17:12:55;;;;;;;3.85;0.70;;;14.80;99.90;;;;;;6249610;23;20031;-89
2022/09/17 17:15:21;;;;;;;2.38;0.50;;;14.90;99.90;;;;;;6220310;23;20031;-89
2022/09/17 17:17:47;;;;;;;2.92;1.13;;;14.90;99.90;;;;;;6226651;23;20031;-87
2022/09/17 17:20:13;;;;;;;3.55;0.50;;;14.90;99.90;;;;;;6225455;23;20004;-88
2022/09/17 17:22:42;;;;;;;3.70;0.75;;;14.90;99.90;;;;;;6223219;23;20011;-89
2022/09/17 17:25:08;;;;;;;1.83;0.52;;;14.90;99.90;;;;;;6184720;23;20413;-88
2022/09/17 17:27:34;;;;;;;1.80;0.50;;;14.90;99.90;;;;;;6215963;23;20016;-92
2022/09/17 17:30:04;;;;;;;5.78;0.70;;;14.90;99.90;;;;;;6216610;23;20039;-87
2022/09/17 17:32:29;;;;;;;3.03;0.80;;;14.90;99.90;;;;;;6215059;23;20008;-89
2022/09/17 17:34:55;;;;;;;3.63;0.60;;;14.90;99.90;;;;;;6217714;23;20005;-91
2022/09/17 17:37:22;;;;;;;3.88;0.73;;;14.80;99.90;;;;;;6243384;23;20015;-91
2022/09/17 17:39:48;;;;;;;4.53;1.02;;;14.80;99.90;;;;;;6223329;23;20004;-89
2022/09/17 17:42:14;;;;;;;4.43;0.70;;;14.80;99.90;;;;;;6223573;23;20031;-89
2022/09/17 17:44:40;;;;;;;3.22;0.70;;;14.70;99.90;;;;;;6224977;23;20043;-88
2022/09/17 17:47:06;;;;;;;2.45;0.93;;;14.60;99.90;;;;;;6221448;23;20011;-88
2022/09/17 17:49:32;;;;;;;2.63;0.50;;;14.60;99.90;;;;;;6220211;23;20035;-89
2022/09/17 17:51:59;;;;;;;2.30;0.63;;;14.40;99.90;;;;;;6224562;23;20008;-87
2022/09/17 17:54:26;;;;;;;1.90;0.50;;;14.30;99.90;;;;;;6219616;23;20012;-89
2022/09/17 17:56:52;;;;;;;3.38;0.80;;;14.20;99.90;;;;;;6224283;23;20011;-87
2022/09/17 17:59:17;;;;;;;2.55;0.70;;;14.10;99.90;;;;;;6227067;23;20441;-87
2022/09/17 18:01:43;;;;;;;3.25;0.70;;;14.00;99.90;;;;;;6222709;23;20015;-90
2022/09/17 18:04:10;;;;;;;2.13;0.43;;;13.90;99.90;;;;;;6218420;23;20004;-91
2022/09/17 18:06:36;;;;;;;3.42;0.93;;;13.80;99.90;;;;;;6214731;23;20039;-90
2022/09/17 18:09:02;;;;;;;2.63;0.73;;;13.70;99.90;;;;;;6243302;23;20046;-92
2022/09/17 18:11:28;;;;;;;2.65;0.75;;;13.70;99.90;;;;;;6215598;23;20026;-91
2022/09/17 18:13:56;;;;;;;2.47;0.60;;;13.70;99.90;;;;;;6226184;23;20064;-87
2022/09/17 18:16:22;;;;;;;2.92;0.70;;;13.70;99.90;;;;;;6227349;23;20020;-90
2022/09/17 18:18:49;;;;;;;2.75;0.50;;;13.60;99.90;;;;;;6227556;23;20043;-90
2022/09/17 18:21:21;;;;;;;5.03;0.55;;;13.60;99.90;;;;;;6196293;23;20001;-88
2022/09/17 18:23:48;;;;;;;1.20;0.40;;;13.60;99.90;;;;;;6226874;23;20012;-89
2022/09/17 18:26:16;;;;;;;1.65;0.40;;;13.60;99.90;;;;;;6223704;23;20016;-92
2022/09/17 18:28:42;;;;;;;2.40;0.57;;;13.60;99.90;;;;;;6218290;23;20012;-90
2022/09/17 18:31:30;;;;;;;2.65;0.55;;;13.50;99.90;;;;;;6217746;23;20402;-90
2022/09/17 18:34:09;;;;;;;1.70;0.40;;;13.50;99.90;;;;;;6185578;23;20345;-89
2022/09/17 18:36:37;;;;;;;1.65;0.50;;;13.40;99.90;;;;;;6224743;23;20037;-90
2022/09/17 18:39:05;;;;;;;0.40;0.30;;;13.30;99.90;;;;;;6218956;23;20468;-91
2022/09/17 18:41:39;;;;;;;3.00;0.40;;;13.30;99.90;;;;;;6217608;23;20012;-91
2022/09/17 18:44:06;;;;;;;1.95;0.40;;;13.30;99.90;;;;;;6215669;23;20012;-91
2022/09/17 18:46:32;;;;;;;2.13;0.43;;;13.40;99.90;;;;;;6216737;23;20020;-91
2022/09/17 18:48:58;;;;;;;1.92;0.40;;;13.30;99.90;;;;;;6217240;23;20093;-92
2022/09/17 18:51:26;;;;;;;2.20;0.50;;;13.30;99.90;;;;;;6218276;23;20000;-92
2022/09/17 18:53:53;;;;;;;2.28;0.50;;;13.30;99.90;;;;;;6217692;23;20059;-91
2022/09/17 18:56:27;;;;;;;1.40;0.45;;;13.30;99.90;;;;;;6217022;23;20008;-92
2022/09/17 18:58:55;;;;;;;1.25;0.30;;;13.20;99.90;;;;;;6217789;23;20031;-92
2022/09/17 19:01:24;;;;;;;1.80;0.30;;;13.20;99.90;;;;;;6218078;23;20015;-90
2022/09/17 19:03:50;;;;;;;2.97;0.50;;;13.10;99.90;;;;;;6218067;23;20021;-92
2022/09/17 19:06:18;;;;;;;3.20;0.47;;;13.10;99.90;;;;;;6218998;23;20422;-93
2022/09/17 19:08:44;;;;;;;1.65;0.43;;;12.90;99.90;;;;;;6217970;23;20422;-90
2022/09/17 19:11:13;;;;;;;2.25;0.57;;;12.90;99.90;;;;;;6218190;23;20321;-92
